Time;durP1;ratioP1;P1;durP2;ratioP2;P2;SDS_P1;SDS_P2;PMS_P1;PMS_P2;Temp;Humidity;BMP_temperature;BMP_pressure;BME280_temperature;BME280_humidity;BME280_pressure;Samples;Min_cycle;Max_cycle;Signal;HPM_P1;HPM_P2
2023/12/22 00:00:47;;;;;;;2.47;0.80;;;;;;;7.28;100.00;96785.41;5075875;28;20231;-71
2023/12/22 00:03:15;;;;;;;2.30;1.10;;;;;;;7.14;100.00;96773.41;5075601;28;20726;-71
2023/12/22 00:05:41;;;;;;;2.40;0.90;;;;;;;7.00;100.00;96759.63;5075844;28;20287;-71
2023/12/22 00:08:08;;;;;;;3.40;0.90;;;;;;;7.12;100.00;96759.66;5075851;28;20228;-71
2023/12/22 00:10:34;;;;;;;4.30;1.20;;;;;;;7.23;100.00;96770.22;5075714;28;20224;-71
2023/12/22 00:13:00;;;;;;;3.77;1.00;;;;;;;7.33;100.00;96777.59;5075742;28;20205;-71
2023/12/22 00:15:27;;;;;;;4.60;1.27;;;;;;;7.14;100.00;96773.41;5075656;28;20205;-71
2023/12/22 00:17:53;;;;;;;3.13;1.27;;;;;;;7.12;100.00;96757.81;5075543;28;20381;-71
2023/12/22 00:20:19;;;;;;;6.27;1.33;;;;;;;7.23;100.00;96770.22;5075445;28;20593;-71
2023/12/22 00:22:46;;;;;;;6.33;1.40;;;;;;;7.30;100.00;96775.41;5075117;28;20664;-71
2023/12/22 00:25:12;;;;;;;6.43;1.97;;;;;;;7.26;100.00;96753.91;5075475;28;20208;-72
2023/12/22 00:27:39;;;;;;;5.17;1.63;;;;;;;7.33;100.00;96769.66;5075471;28;20631;-71
2023/12/22 00:30:06;;;;;;;4.43;1.53;;;;;;;7.40;100.00;96763.22;5075209;28;20232;-71
2023/12/22 00:32:32;;;;;;;4.63;1.63;;;;;;;7.38;100.00;96794.34;5075000;28;20240;-71
2023/12/22 00:34:58;;;;;;;5.53;1.93;;;;;;;7.36;100.00;96811.50;5075462;28;20569;-71
2023/12/22 00:37:25;;;;;;;3.73;1.10;;;;;;;6.91;100.00;96783.94;5075229;28;20283;-71
2023/12/22 00:39:51;;;;;;;4.67;1.00;;;;;;;6.78;100.00;96827.22;5074736;28;20569;-71
2023/12/22 00:42:17;;;;;;;4.20;1.13;;;;;;;6.66;100.00;96801.81;5075179;28;20528;-71
2023/12/22 00:44:44;;;;;;;2.47;1.07;;;;;;;6.65;100.00;96827.41;5075084;28;20240;-71
2023/12/22 00:47:10;;;;;;;4.37;1.20;;;;;;;6.68;100.00;96824.31;5074877;28;20573;-70
2023/12/22 00:49:36;;;;;;;4.97;1.50;;;;;;;6.71;100.00;96838.91;5074567;28;20225;-71
2023/12/22 00:52:03;;;;;;;3.27;1.10;;;;;;;6.78;100.00;96843.06;5074917;28;20208;-70
2023/12/22 00:54:31;;;;;;;5.63;1.17;;;;;;;6.83;100.00;96834.50;5074674;28;20633;-71
2023/12/22 00:56:58;;;;;;;1.83;0.90;;;;;;;6.94;100.00;96852.19;5074460;28;20569;-71
2023/12/22 00:59:25;;;;;;;3.53;1.10;;;;;;;6.95;100.00;96851.16;5074690;28;20223;-71
2023/12/22 01:01:51;;;;;;;3.30;0.77;;;;;;;6.92;100.00;96839.22;5074750;28;20210;-71
2023/12/22 01:04:18;;;;;;;3.07;1.10;;;;;;;6.95;100.00;96854.63;5074627;28;20207;-71
2023/12/22 01:06:45;;;;;;;3.53;0.90;;;;;;;6.98;100.00;96843.59;5074538;28;20208;-71
2023/12/22 01:09:11;;;;;;;3.03;1.20;;;;;;;6.99;100.00;96828.53;5073954;28;20225;-70
2023/12/22 01:11:38;;;;;;;4.37;1.13;;;;;;;6.93;100.00;96830.25;5074218;28;20751;-70
2023/12/22 01:14:04;;;;;;;4.07;1.30;;;;;;;7.04;100.00;96815.47;5074401;28;20209;-70
2023/12/22 01:16:30;;;;;;;3.17;1.10;;;;;;;7.04;100.00;96821.56;5074399;28;20209;-71
2023/12/22 01:18:57;;;;;;;3.27;0.90;;;;;;;7.08;100.00;96824.53;5074281;28;20201;-71
2023/12/22 01:21:23;;;;;;;4.00;1.00;;;;;;;7.22;100.00;96808.25;5074309;28;20205;-71
2023/12/22 01:23:49;;;;;;;4.77;1.47;;;;;;;7.22;100.00;96816.19;5074329;28;20204;-71
2023/12/22 01:26:16;;;;;;;5.67;1.50;;;;;;;7.27;100.00;96826.88;5074223;28;20207;-71
2023/12/22 01:28:42;;;;;;;9.37;1.60;;;;;;;7.25;100.00;96809.66;5074369;28;20229;-71
2023/12/22 01:31:08;;;;;;;3.90;1.33;;;;;;;7.17;100.00;96800.22;5074179;28;20204;-71
2023/12/22 01:33:35;;;;;;;9.07;1.67;;;;;;;7.11;100.00;96816.97;5073844;28;20208;-71
2023/12/22 01:36:01;;;;;;;7.03;1.27;;;;;;;7.34;100.00;96818.84;5073823;28;20213;-71
2023/12/22 01:38:28;;;;;;;6.03;1.53;;;;;;;7.39;100.00;96814.50;5074054;28;20211;-71
2023/12/22 01:40:54;;;;;;;5.80;1.27;;;;;;;7.27;100.00;96811.03;5073931;28;20235;-71
2023/12/22 01:43:21;;;;;;;8.03;1.63;;;;;;;7.41;100.00;96822.19;5073943;28;20577;-71
2023/12/22 01:45:57;;;;;;;3.77;1.10;;;;;;;7.31;100.00;96821.94;5073149;28;20570;-71
2023/12/22 01:48:24;;;;;;;4.97;1.10;;;;;;;7.25;100.00;96833.44;5073773;28;20214;-71
2023/12/22 01:50:53;;;;;;;4.97;1.40;;;;;;;7.33;100.00;96830.47;5073510;28;20737;-71
2023/12/22 01:53:21;;;;;;;3.93;1.23;;;;;;;7.35;100.00;96831.84;5073914;28;20683;-71
2023/12/22 01:55:50;;;;;;;3.07;1.10;;;;;;;7.35;100.00;96829.22;5073555;28;20205;-71
2023/12/22 01:58:16;;;;;;;3.43;0.80;;;;;;;7.35;100.00;96828.38;5074116;28;20208;-71
2023/12/22 02:00:43;;;;;;;4.97;1.13;;;;;;;7.37;100.00;96837.69;5073741;28;20227;-71
2023/12/22 02:03:10;;;;;;;1.87;0.70;;;;;;;7.31;100.00;96851.03;5073837;28;20201;-71
2023/12/22 02:05:37;;;;;;;4.60;1.10;;;;;;;7.22;100.00;96855.03;5073437;28;20211;-71
2023/12/22 02:08:04;;;;;;;3.73;0.97;;;;;;;7.28;100.00;96840.91;5073691;28;20215;-71
2023/12/22 02:10:30;;;;;;;2.40;0.90;;;;;;;7.29;100.00;96845.16;5073191;28;20231;-71
2023/12/22 02:12:56;;;;;;;2.70;0.83;;;;;;;7.23;100.00;96852.16;5073623;28;20205;-71
2023/12/22 02:15:23;;;;;;;2.30;0.70;;;;;;;7.28;100.00;96825.84;5073546;28;20200;-71
2023/12/22 02:17:55;;;;;;;1.50;0.50;;;;;;;7.39;100.00;96835.66;5073774;28;20208;-71
2023/12/22 02:20:22;;;;;;;2.17;0.60;;;;;;;7.42;100.00;96839.69;5073289;28;20586;-71
2023/12/22 02:22:53;;;;;;;1.77;0.50;;;;;;;7.31;100.00;96845.72;5073525;28;20205;-71
2023/12/22 02:25:19;;;;;;;2.73;1.20;;;;;;;7.35;100.00;96860.94;5073774;28;20574;-71
2023/12/22 02:27:49;;;;;;;2.70;1.00;;;;;;;7.35;100.00;96858.28;5073163;28;20668;-71
2023/12/22 02:30:30;;;;;;;4.13;0.90;;;;;;;7.35;100.00;96857.47;5073339;28;20235;-71
2023/12/22 02:33:00;;;;;;;1.83;0.80;;;;;;;7.26;100.00;96859.66;5073423;28;20201;-72
2023/12/22 02:35:29;;;;;;;3.73;0.90;;;;;;;7.20;100.00;96854.47;5073496;28;20196;-72
2023/12/22 02:37:58;;;;;;;2.57;0.77;;;;;;;7.38;100.00;96864.94;5073660;28;20200;-72
2023/12/22 02:40:26;;;;;;;5.70;0.93;;;;;;;7.33;100.00;96872.75;5073184;28;20226;-72
2023/12/22 02:42:53;;;;;;;2.30;0.90;;;;;;;7.33;100.00;96873.56;5073051;28;20686;-72
2023/12/22 02:45:21;;;;;;;1.90;0.80;;;;;;;7.32;100.00;96861.38;5073297;28;20208;-72
2023/12/22 02:47:47;;;;;;;4.10;1.10;;;;;;;7.48;100.00;96850.16;5073078;28;20216;-71
2023/12/22 02:50:15;;;;;;;5.13;1.00;;;;;;;7.43;100.00;96851.84;5072749;28;20717;-71
2023/12/22 02:52:42;;;;;;;3.87;1.07;;;;;;;7.35;100.00;96846.88;5073185;28;20207;-72
2023/12/22 02:55:09;;;;;;;3.40;1.00;;;;;;;7.41;100.00;96861.84;5073234;28;20204;-72
2023/12/22 02:57:36;;;;;;;3.57;1.00;;;;;;;7.26;100.00;96851.72;5076792;28;20205;-72
2023/12/22 03:00:03;;;;;;;5.00;1.37;;;;;;;7.32;100.00;96848.16;5077037;28;20227;-72
2023/12/22 03:02:29;;;;;;;2.90;1.10;;;;;;;7.39;100.00;96855.97;5077026;28;20254;-72
2023/12/22 03:04:55;;;;;;;3.17;1.27;;;;;;;7.44;100.00;96849.00;5077628;28;20565;-72
2023/12/22 03:07:22;;;;;;;3.50;1.10;;;;;;;7.44;100.00;96842.88;5076753;28;20681;-72
2023/12/22 03:09:48;;;;;;;3.30;1.17;;;;;;;7.44;100.00;96834.94;5076418;28;20224;-72
2023/12/22 03:12:14;;;;;;;3.73;1.17;;;;;;;7.52;100.00;96843.34;5076511;28;20221;-72
2023/12/22 03:14:41;;;;;;;6.20;1.23;;;;;;;7.47;100.00;96842.44;5077147;28;20208;-72
2023/12/22 03:17:08;;;;;;;4.00;1.10;;;;;;;7.59;100.00;96825.53;5076762;28;20200;-72
2023/12/22 03:19:34;;;;;;;6.03;1.30;;;;;;;7.67;100.00;96846.34;5076647;28;20217;-72
2023/12/22 03:22:01;;;;;;;2.70;1.17;;;;;;;7.62;100.00;96846.25;5076684;28;20207;-72
2023/12/22 03:24:28;;;;;;;3.37;1.00;;;;;;;7.80;100.00;96838.19;5076773;28;20216;-72
2023/12/22 03:26:55;;;;;;;2.40;0.97;;;;;;;7.82;100.00;96830.81;5076551;28;20209;-72
2023/12/22 03:29:21;;;;;;;4.47;1.20;;;;;;;7.82;100.00;96830.81;5076276;28;20228;-72
2023/12/22 03:31:47;;;;;;;3.43;0.77;;;;;;;7.80;100.00;96830.25;5076374;28;20212;-72
2023/12/22 03:34:14;;;;;;;4.57;0.90;;;;;;;7.84;100.00;96844.63;5076308;28;20212;-71
2023/12/22 03:36:41;;;;;;;3.63;1.20;;;;;;;7.85;100.00;96861.28;5076308;28;20207;-72
2023/12/22 03:39:07;;;;;;;3.07;1.20;;;;;;;7.76;100.00;96878.56;5075782;28;20227;-72
2023/12/22 03:41:32;;;;;;;3.73;1.00;;;;;;;7.71;100.00;96875.78;5075864;28;20682;-72
2023/12/22 03:43:59;;;;;;;2.97;1.00;;;;;;;7.76;100.00;96874.06;5076215;28;20204;-72
2023/12/22 03:46:25;;;;;;;3.83;1.10;;;;;;;7.72;100.00;96885.31;5075813;28;20205;-72
2023/12/22 03:48:52;;;;;;;2.10;0.80;;;;;;;7.64;100.00;96891.78;5075769;28;20216;-72
2023/12/22 03:51:18;;;;;;;3.43;1.10;;;;;;;7.80;100.00;96899.03;5076104;28;20571;-72
2023/12/22 03:53:45;;;;;;;5.17;1.10;;;;;;;7.72;100.00;96882.69;5076127;28;20229;-72
2023/12/22 03:56:11;;;;;;;3.00;0.87;;;;;;;7.68;100.00;96886.81;5075756;28;20574;-72
2023/12/22 03:58:38;;;;;;;4.33;0.93;;;;;;;7.61;100.00;96896.72;5075996;28;20209;-72
2023/12/22 04:01:07;;;;;;;5.00;1.30;;;;;;;7.35;100.00;96886.53;5075910;28;20201;-72
2023/12/22 04:03:34;;;;;;;4.47;1.27;;;;;;;7.08;100.00;96869.47;5075738;28;20208;-72
2023/12/22 04:06:04;;;;;;;4.90;1.50;;;;;;;6.88;100.00;96887.44;5075671;28;20667;-72
2023/12/22 04:08:31;;;;;;;4.43;1.17;;;;;;;6.74;100.00;96892.06;5075167;28;20208;-72
2023/12/22 04:10:57;;;;;;;6.57;1.23;;;;;;;6.67;100.00;96887.91;5075500;28;20232;-72
2023/12/22 04:13:24;;;;;;;5.97;1.60;;;;;;;6.67;100.00;96903.75;5075610;28;20207;-71
2023/12/22 04:15:50;;;;;;;6.77;1.83;;;;;;;6.59;100.00;96898.78;5075513;28;20209;-71
2023/12/22 04:18:17;;;;;;;9.17;1.70;;;;;;;6.58;100.00;96890.06;5075320;28;20208;-71
2023/12/22 04:20:43;;;;;;;5.57;1.60;;;;;;;6.54;100.00;96870.41;5075289;28;20224;-72
2023/12/22 04:23:09;;;;;;;7.70;1.40;;;;;;;6.47;100.00;96850.41;5075970;28;20205;-72
2023/12/22 04:25:35;;;;;;;4.97;1.60;;;;;;;6.60;100.00;96880.06;5075437;28;20205;-72
2023/12/22 04:28:02;;;;;;;5.97;1.57;;;;;;;6.57;100.00;96877.91;5075307;28;20208;-72
2023/12/22 04:30:28;;;;;;;4.67;1.50;;;;;;;6.72;100.00;96848.44;5075368;28;20232;-72
2023/12/22 04:32:56;;;;;;;4.50;1.17;;;;;;;6.73;100.00;96864.06;5075169;28;20568;-72
2023/12/22 04:35:22;;;;;;;5.20;1.03;;;;;;;6.81;100.00;96858.47;5074623;28;20296;-71
2023/12/22 04:37:48;;;;;;;6.23;1.20;;;;;;;6.90;100.00;96872.16;5074830;28;20212;-72
2023/12/22 04:40:15;;;;;;;5.80;1.40;;;;;;;6.97;100.00;96876.31;5074509;28;20217;-72
2023/12/22 04:42:41;;;;;;;4.00;1.13;;;;;;;7.08;100.00;96883.50;5074718;28;20200;-72
2023/12/22 04:45:08;;;;;;;3.40;1.20;;;;;;;7.07;100.00;96884.53;5074839;28;20211;-72
2023/12/22 04:47:34;;;;;;;4.90;1.47;;;;;;;7.20;100.00;96913.38;5074699;28;20212;-72
2023/12/22 04:50:01;;;;;;;2.70;0.90;;;;;;;7.19;100.00;96911.00;5075039;28;20233;-72
2023/12/22 04:52:28;;;;;;;3.40;1.07;;;;;;;7.29;100.00;96909.41;5074855;28;20604;-72
2023/12/22 04:54:54;;;;;;;6.03;1.10;;;;;;;7.30;100.00;96894.34;5074949;28;20629;-72
2023/12/22 04:57:22;;;;;;;3.50;1.00;;;;;;;7.39;100.00;96911.50;5074774;28;20207;-72
2023/12/22 04:59:48;;;;;;;6.27;1.10;;;;;;;7.26;100.00;96914.34;5074668;28;20220;-72
2023/12/22 05:02:14;;;;;;;3.80;0.97;;;;;;;7.35;100.00;96918.28;5074226;28;20576;-72
2023/12/22 05:04:41;;;;;;;2.70;0.97;;;;;;;7.38;100.00;96915.19;5074084;28;20216;-72
2023/12/22 05:07:07;;;;;;;5.83;1.30;;;;;;;7.34;100.00;96935.97;5074451;28;20201;-72
2023/12/22 05:09:36;;;;;;;4.13;1.40;;;;;;;7.40;100.00;96923.69;5074338;28;20233;-72
2023/12/22 05:12:03;;;;;;;5.47;1.30;;;;;;;7.45;100.00;96945.78;5074467;28;20308;-72
2023/12/22 05:14:29;;;;;;;1.73;0.93;;;;;;;7.39;100.00;96953.81;5074360;28;20208;-72
2023/12/22 05:16:56;;;;;;;5.43;1.40;;;;;;;7.37;100.00;96955.88;5074240;28;20216;-72
2023/12/22 05:19:23;;;;;;;6.20;1.63;;;;;;;7.31;100.00;96951.47;5073582;28;20225;-73
2023/12/22 05:21:49;;;;;;;5.23;1.67;;;;;;;7.47;100.00;96941.06;5074121;28;20209;-72
2023/12/22 05:24:16;;;;;;;3.83;1.50;;;;;;;7.46;100.00;96951.88;5074011;28;20278;-72
2023/12/22 05:26:42;;;;;;;4.63;1.53;;;;;;;7.38;100.00;96933.69;5073966;28;20211;-72
2023/12/22 05:29:09;;;;;;;6.03;1.80;;;;;;;7.41;100.00;96941.97;5074572;28;20224;-72
2023/12/22 05:31:35;;;;;;;5.87;1.67;;;;;;;7.45;100.00;96951.06;5073860;28;20707;-72
2023/12/22 05:34:01;;;;;;;7.10;1.70;;;;;;;7.44;100.00;96951.28;5073826;28;20205;-72
2023/12/22 05:36:28;;;;;;;10.73;2.37;;;;;;;7.35;100.00;96944.72;5073883;28;20212;-72
2023/12/22 05:38:54;;;;;;;10.10;2.07;;;;;;;7.29;100.00;96961.47;5073828;28;20212;-72
2023/12/22 05:41:21;;;;;;;6.83;2.00;;;;;;;7.25;100.00;96960.31;5073786;28;20201;-73
2023/12/22 05:43:47;;;;;;;8.33;2.07;;;;;;;7.14;100.00;96946.00;5073254;28;20668;-72
2023/12/22 05:46:13;;;;;;;6.70;2.17;;;;;;;7.24;100.00;96974.56;5073447;28;20208;-73
2023/12/22 05:48:40;;;;;;;10.33;2.70;;;;;;;7.35;100.00;96952.63;5073034;28;20248;-72
2023/12/22 05:51:13;;;;;;;7.10;1.90;;;;;;;7.31;100.00;96968.16;5073050;28;20314;-72
2023/12/22 05:53:40;;;;;;;6.87;2.20;;;;;;;7.44;100.00;96956.56;5073501;28;20189;-72
2023/12/22 05:56:06;;;;;;;6.73;2.07;;;;;;;7.44;100.00;96959.22;5073507;28;20204;-72
2023/12/22 05:58:33;;;;;;;5.57;1.70;;;;;;;7.56;100.00;96963.50;5073379;28;20208;-72
2023/12/22 06:01:00;;;;;;;5.77;2.03;;;;;;;7.67;100.00;96936.28;5073283;28;20291;-72
2023/12/22 06:03:27;;;;;;;5.13;1.70;;;;;;;7.71;100.00;96942.75;5073382;28;20216;-72
2023/12/22 06:05:53;;;;;;;4.40;1.57;;;;;;;7.58;100.00;96989.72;5073364;28;20204;-73
2023/12/22 06:08:19;;;;;;;6.30;1.63;;;;;;;7.92;100.00;96978.44;5073520;28;20563;-72
2023/12/22 06:10:45;;;;;;;7.23;2.00;;;;;;;7.91;100.00;96998.78;5073110;28;20228;-72
2023/12/22 06:13:12;;;;;;;7.70;1.70;;;;;;;7.82;100.00;97008.06;5073240;28;20216;-72
2023/12/22 06:15:38;;;;;;;8.00;1.70;;;;;;;7.86;100.00;96992.56;5072942;28;20208;-72
2023/12/22 06:18:05;;;;;;;7.40;2.03;;;;;;;7.76;100.00;97000.25;5073105;28;20208;-72
2023/12/22 06:20:31;;;;;;;7.60;2.00;;;;;;;7.68;100.00;96996.09;5073373;28;20237;-73
2023/12/22 06:22:58;;;;;;;4.00;1.90;;;;;;;7.72;100.00;97010.47;5073121;28;20255;-73
2023/12/22 06:25:24;;;;;;;6.87;1.63;;;;;;;7.73;100.00;96998.84;5073046;28;20205;-73
2023/12/22 06:27:50;;;;;;;7.67;2.47;;;;;;;7.82;100.00;97010.72;5073073;28;20210;-73
2023/12/22 06:30:17;;;;;;;6.77;2.00;;;;;;;7.82;100.00;97034.53;5073411;28;20718;-72
2023/12/22 06:32:43;;;;;;;6.93;2.33;;;;;;;7.77;100.00;97049.47;5077225;28;20200;-73
2023/12/22 06:35:10;;;;;;;6.67;1.90;;;;;;;7.77;100.00;97041.53;5077088;28;20209;-73
2023/12/22 06:37:37;;;;;;;7.43;2.00;;;;;;;7.78;100.00;97051.09;5077286;28;20208;-72
2023/12/22 06:40:03;;;;;;;7.67;2.10;;;;;;;7.65;100.00;97040.69;5076986;28;20224;-73
2023/12/22 06:42:30;;;;;;;6.30;1.90;;;;;;;7.80;100.00;97055.13;5077154;28;20205;-72
2023/12/22 06:44:56;;;;;;;8.00;1.83;;;;;;;7.73;100.00;97053.59;5077053;28;20204;-72
2023/12/22 06:47:22;;;;;;;9.33;1.90;;;;;;;7.81;100.00;97048.00;5076794;28;20313;-73
2023/12/22 06:49:49;;;;;;;6.40;1.90;;;;;;;7.83;100.00;97054.66;5076628;28;20590;-73
2023/12/22 06:52:15;;;;;;;9.17;2.53;;;;;;;7.84;100.00;97058.94;5076657;28;20219;-73
2023/12/22 06:54:42;;;;;;;7.20;2.10;;;;;;;7.85;100.00;97051.78;5076647;28;20220;-73
2023/12/22 06:57:08;;;;;;;6.23;1.77;;;;;;;8.00;100.00;97066.22;5076593;28;20208;-73
2023/12/22 06:59:34;;;;;;;5.40;1.60;;;;;;;7.88;100.00;97073.31;5076618;28;20231;-73
2023/12/22 07:02:01;;;;;;;6.30;2.20;;;;;;;7.91;100.00;97085.28;5076866;28;20201;-72
2023/12/22 07:05:20;;;;;;;7.97;1.80;;;;;;;7.88;100.00;97085.75;5076713;28;20208;-73
2023/12/22 07:07:47;;;;;;;6.10;2.00;;;;;;;7.87;100.00;97092.88;5021478;28;20205;-73
2023/12/22 07:10:13;;;;;;;5.33;1.30;;;;;;;7.85;100.00;97083.56;5075837;28;20714;-73
2023/12/22 07:12:40;;;;;;;6.23;1.77;;;;;;;7.83;100.00;97099.66;5076307;28;20205;-73
2023/12/22 07:15:07;;;;;;;11.07;2.10;;;;;;;7.81;100.00;97109.66;5076071;28;20674;-72
2023/12/22 07:17:34;;;;;;;7.23;1.70;;;;;;;7.79;100.00;97090.53;5076512;28;20240;-73
2023/12/22 07:20:03;;;;;;;4.63;1.53;;;;;;;7.72;100.00;97102.25;5076949;28;20221;-73
2023/12/22 07:22:29;;;;;;;6.53;1.90;;;;;;;7.75;100.00;97113.22;5076040;28;20208;-73
2023/12/22 07:24:56;;;;;;;6.40;1.60;;;;;;;7.72;100.00;97094.31;5075905;28;20258;-72
2023/12/22 07:27:22;;;;;;;6.27;1.70;;;;;;;7.68;100.00;97095.78;5075730;28;20290;-73
2023/12/22 07:29:49;;;;;;;5.87;1.67;;;;;;;7.68;100.00;97098.44;5076192;28;20228;-73
2023/12/22 07:32:15;;;;;;;5.40;1.60;;;;;;;7.74;100.00;97113.44;5076108;28;20208;-73
2023/12/22 07:34:42;;;;;;;6.73;2.00;;;;;;;7.78;100.00;97133.13;5076028;28;20202;-73
2023/12/22 07:37:08;;;;;;;8.10;1.90;;;;;;;7.76;100.00;97103.41;5075798;28;20215;-73
2023/12/22 07:39:35;;;;;;;5.83;1.90;;;;;;;7.81;100.00;97109.66;5075920;28;20286;-72
2023/12/22 07:42:01;;;;;;;5.43;1.50;;;;;;;7.83;100.00;97117.38;5075523;28;20211;-73
2023/12/22 07:44:28;;;;;;;4.73;1.47;;;;;;;7.83;100.00;97112.88;5075858;28;20208;-73
2023/12/22 07:46:59;;;;;;;5.40;1.27;;;;;;;7.78;100.00;97117.25;5075948;28;20201;-73
2023/12/22 07:49:25;;;;;;;5.20;1.60;;;;;;;7.80;100.00;97128.41;5075970;28;20232;-73
2023/12/22 07:51:53;;;;;;;6.53;1.70;;;;;;;7.75;100.00;97107.09;5075953;28;20236;-73
2023/12/22 07:54:19;;;;;;;5.93;1.97;;;;;;;7.74;100.00;97111.56;5076101;28;20211;-73
2023/12/22 07:56:46;;;;;;;6.27;1.50;;;;;;;7.74;100.00;97097.56;5075555;28;20204;-73
2023/12/22 07:59:12;;;;;;;3.87;1.43;;;;;;;7.76;100.00;97121.94;5075377;28;20231;-73
2023/12/22 08:01:39;;;;;;;5.33;1.40;;;;;;;7.68;100.00;97128.34;5075702;28;20569;-73
2023/12/22 08:04:05;;;;;;;5.93;1.70;;;;;;;7.60;100.00;97104.06;5075573;28;20210;-73
2023/12/22 08:06:33;;;;;;;5.43;1.63;;;;;;;7.50;100.00;97112.50;5075627;28;20611;-73
2023/12/22 08:08:59;;;;;;;6.70;1.53;;;;;;;7.32;100.00;97106.41;5075541;28;20208;-73
2023/12/22 08:11:26;;;;;;;6.70;1.50;;;;;;;7.16;100.00;97114.94;5075140;28;20232;-73
2023/12/22 08:13:53;;;;;;;3.80;1.30;;;;;;;7.03;100.00;97126.47;5075094;28;20209;-73
2023/12/22 08:16:19;;;;;;;4.70;1.53;;;;;;;6.91;100.00;97122.91;5075354;28;20209;-73
2023/12/22 08:18:46;;;;;;;5.00;1.50;;;;;;;6.92;100.00;97126.38;5075108;28;20246;-72
2023/12/22 08:21:12;;;;;;;5.03;1.50;;;;;;;6.85;100.00;97139.66;5075181;28;20208;-72
2023/12/22 08:23:38;;;;;;;6.13;1.83;;;;;;;6.80;100.00;97128.94;5075198;28;20207;-72
2023/12/22 08:26:05;;;;;;;5.27;1.30;;;;;;;6.75;100.00;97127.97;5075113;28;20204;-72
2023/12/22 08:28:31;;;;;;;4.33;1.30;;;;;;;6.83;100.00;97132.97;5074625;28;20587;-72
2023/12/22 08:30:57;;;;;;;8.07;1.80;;;;;;;6.77;100.00;97133.81;5074944;28;20232;-72
2023/12/22 08:33:24;;;;;;;7.10;1.70;;;;;;;6.69;100.00;97108.50;5075117;28;20205;-72
2023/12/22 08:35:50;;;;;;;6.63;1.77;;;;;;;6.76;100.00;97119.00;5057258;28;20256;-72
2023/12/22 08:38:17;;;;;;;7.90;1.90;;;;;;;6.79;100.00;97111.44;5074714;28;20667;-72
2023/12/22 08:40:43;;;;;;;12.00;2.20;;;;;;;6.73;100.00;97114.16;5074488;28;20217;-72
2023/12/22 08:43:10;;;;;;;8.70;2.23;;;;;;;6.90;100.00;97117.84;5074574;28;20212;-73
2023/12/22 08:45:36;;;;;;;10.30;2.47;;;;;;;7.04;100.00;97124.63;5074558;28;20282;-72
2023/12/22 08:48:07;;;;;;;6.53;1.93;;;;;;;7.15;100.00;97113.34;5074425;28;20212;-72
2023/12/22 08:50:34;;;;;;;10.70;2.60;;;;;;;7.28;100.00;97123.75;5074584;28;20758;-72
2023/12/22 08:53:01;;;;;;;8.43;2.07;;;;;;;7.19;100.00;97114.50;5074594;28;20205;-72
2023/12/22 08:55:27;;;;;;;9.17;2.63;;;;;;;7.27;100.00;97120.31;5074309;28;20215;-72
2023/12/22 08:57:53;;;;;;;8.83;2.17;;;;;;;7.36;100.00;97120.81;5074491;28;20209;-72
2023/12/22 09:00:20;;;;;;;10.60;2.73;;;;;;;7.34;100.00;97112.28;5074388;28;20220;-72
2023/12/22 09:02:46;;;;;;;10.23;2.50;;;;;;;7.44;100.00;97123.97;5074231;28;20663;-72
2023/12/22 09:05:12;;;;;;;9.60;2.57;;;;;;;7.39;100.00;97120.38;5074380;28;20216;-73
2023/12/22 09:07:39;;;;;;;9.03;2.50;;;;;;;7.55;100.00;97123.22;5074412;28;20212;-72
2023/12/22 09:10:05;;;;;;;11.80;2.83;;;;;;;7.52;100.00;97128.94;5074203;28;20254;-72
2023/12/22 09:12:32;;;;;;;14.87;2.77;;;;;;;7.56;100.00;97135.41;5074025;28;20231;-73
2023/12/22 09:14:58;;;;;;;10.37;2.47;;;;;;;7.70;100.00;97120.97;5074002;28;20211;-73
2023/12/22 09:17:27;;;;;;;9.40;2.47;;;;;;;7.86;100.00;97132.78;5073890;28;20208;-72
2023/12/22 09:19:54;;;;;;;8.20;2.40;;;;;;;7.83;100.00;97134.03;5073997;28;20224;-72
2023/12/22 09:22:21;;;;;;;12.20;2.40;;;;;;;7.79;100.00;97122.28;5074101;28;20202;-73
2023/12/22 09:24:48;;;;;;;13.60;2.80;;;;;;;7.76;100.00;97138.63;5074554;28;20215;-73
2023/12/22 09:27:15;;;;;;;13.00;2.73;;;;;;;7.94;100.00;97151.00;5073147;28;20295;-73
2023/12/22 09:29:42;;;;;;;9.27;2.00;;;;;;;7.90;100.00;97136.59;5073437;28;20225;-73
2023/12/22 09:32:08;;;;;;;11.27;2.60;;;;;;;7.91;100.00;97151.44;5073223;28;20265;-72
2023/12/22 09:34:34;;;;;;;12.50;2.60;;;;;;;7.98;100.00;97146.88;5073447;28;20205;-73
2023/12/22 09:37:00;;;;;;;10.00;2.13;;;;;;;7.95;100.00;97150.78;5074174;28;20212;-72
2023/12/22 09:39:28;;;;;;;9.37;2.50;;;;;;;8.05;100.00;97166.94;5073337;28;20227;-73
2023/12/22 09:41:55;;;;;;;11.63;3.03;;;;;;;8.06;100.00;97165.09;5073573;28;20204;-73
2023/12/22 09:44:22;;;;;;;9.23;2.60;;;;;;;8.05;100.00;97182.03;5073283;28;20212;-72
2023/12/22 09:46:50;;;;;;;10.00;2.80;;;;;;;8.15;100.00;97179.63;5073740;28;20211;-73
2023/12/22 09:49:18;;;;;;;11.60;2.40;;;;;;;8.16;100.00;97189.19;5073033;28;20646;-72
2023/12/22 09:51:45;;;;;;;8.73;2.60;;;;;;;8.19;100.00;97181.59;5073454;28;20224;-73
2023/12/22 09:54:12;;;;;;;9.50;2.93;;;;;;;8.14;100.00;97181.47;5073221;28;20228;-73
2023/12/22 09:56:42;;;;;;;13.50;2.57;;;;;;;8.16;100.00;97186.53;5073503;28;20311;-72
2023/12/22 09:59:15;;;;;;;12.10;2.90;;;;;;;8.08;100.00;97163.84;5073352;28;20235;-73
2023/12/22 10:01:45;;;;;;;12.57;2.97;;;;;;;8.12;100.00;97177.44;5073612;28;20198;-73
2023/12/22 10:04:12;;;;;;;12.07;2.57;;;;;;;8.21;100.00;97168.16;5073401;28;20213;-73
2023/12/22 10:06:38;;;;;;;9.73;3.07;;;;;;;8.20;100.00;97169.19;5073006;28;20596;-73
2023/12/22 10:09:08;;;;;;;11.33;3.40;;;;;;;8.30;100.00;97169.47;5073149;28;20647;-72
2023/12/22 10:11:36;;;;;;;12.30;2.80;;;;;;;8.24;100.00;97154.50;5073014;28;20637;-73
2023/12/22 10:14:04;;;;;;;11.10;2.97;;;;;;;8.26;100.00;97147.13;5073255;28;20521;-73
2023/12/22 10:16:30;;;;;;;8.90;2.53;;;;;;;8.28;100.00;97131.81;5073255;28;20575;-72
2023/12/22 10:18:57;;;;;;;12.87;3.80;;;;;;;8.33;100.00;97124.78;5073103;28;20216;-72
2023/12/22 10:21:23;;;;;;;9.80;2.77;;;;;;;8.31;100.00;97131.34;5072888;28;20211;-73
2023/12/22 10:23:49;;;;;;;12.13;2.83;;;;;;;8.34;100.00;97125.63;5073107;28;20205;-73
2023/12/22 10:26:17;;;;;;;11.37;2.57;;;;;;;8.33;100.00;97118.72;5073363;28;20214;-73
2023/12/22 10:28:44;;;;;;;13.17;3.17;;;;;;;8.35;100.00;97121.94;5072886;28;20212;-73
2023/12/22 10:31:11;;;;;;;9.20;2.80;;;;;;;8.35;100.00;97116.63;5072666;28;20353;-73
2023/12/22 10:33:37;;;;;;;7.00;2.40;;;;;;;8.44;100.00;97112.63;5072978;28;20259;-73
2023/12/22 10:36:04;;;;;;;9.70;2.50;;;;;;;8.40;100.00;97119.41;5073042;28;20211;-73
2023/12/22 10:38:34;;;;;;;9.93;2.53;;;;;;;8.43;100.00;97106.53;5072809;28;20207;-73
2023/12/22 10:41:02;;;;;;;13.70;3.10;;;;;;;8.48;100.00;97098.69;5072663;28;20274;-73
2023/12/22 10:43:29;;;;;;;9.10;2.57;;;;;;;8.43;100.00;97105.72;5072803;28;20584;-73
2023/12/22 10:45:56;;;;;;;12.80;2.73;;;;;;;8.41;100.00;97102.50;5073049;28;20205;-73
2023/12/22 10:48:23;;;;;;;12.03;3.00;;;;;;;8.36;100.00;97081.16;5072719;28;20261;-73
2023/12/22 10:50:49;;;;;;;9.30;2.60;;;;;;;8.38;100.00;97081.75;5072712;28;20220;-73
2023/12/22 10:53:16;;;;;;;12.80;2.43;;;;;;;8.43;100.00;97077.41;5072949;28;20296;-72
2023/12/22 10:55:42;;;;;;;9.97;2.60;;;;;;;8.42;100.00;97082.91;5072578;28;20204;-73
2023/12/22 10:58:09;;;;;;;7.60;2.37;;;;;;;8.45;100.00;97071.84;5072322;28;20215;-73
2023/12/22 11:00:43;;;;;;;8.50;2.07;;;;;;;8.32;100.00;97069.44;5072422;28;20231;-73
2023/12/22 11:03:13;;;;;;;7.37;2.23;;;;;;;8.43;100.00;97071.28;5072327;28;20522;-73
2023/12/22 11:05:43;;;;;;;5.60;1.83;;;;;;;8.41;100.00;97074.16;5055415;28;20200;-73
2023/12/22 11:08:12;;;;;;;5.67;1.63;;;;;;;8.37;100.00;97051.81;5072599;28;20206;-73
2023/12/22 11:10:43;;;;;;;4.27;1.40;;;;;;;8.30;100.00;97060.91;5072602;28;20228;-73
2023/12/22 11:13:11;;;;;;;3.73;1.00;;;;;;;8.30;100.00;97050.31;5072223;28;20264;-72
2023/12/22 11:15:40;;;;;;;5.93;1.37;;;;;;;8.28;100.00;97052.41;5072371;28;20668;-73
2023/12/22 11:18:08;;;;;;;4.27;1.27;;;;;;;8.29;100.00;97057.44;5074586;28;20211;-73
2023/12/22 11:20:36;;;;;;;5.37;1.50;;;;;;;8.21;100.00;97057.78;5076265;28;20333;-73
2023/12/22 11:23:03;;;;;;;5.13;1.20;;;;;;;8.17;100.00;97071.66;5076321;28;20200;-73
2023/12/22 11:25:31;;;;;;;4.53;1.40;;;;;;;8.13;100.00;97070.50;5075974;28;20219;-72
2023/12/22 11:27:59;;;;;;;3.23;1.30;;;;;;;8.14;100.00;97040.38;5076112;28;20201;-73
2023/12/22 11:30:27;;;;;;;3.43;1.20;;;;;;;8.07;100.00;97037.00;5076129;28;20233;-73